X  Sluiten METAR luchtvaart weer gegevens      EHRD Rotterdam The Hague Airport
Temperatuur
6°C Temperatuur
5°C Dauwpunt
93% Vochtigheid



Wind
13 KM/U
8 MPH
4 M/S
7 KTS



190°
Z
Huidig weer

Wat bewolking Wat bewolking
Luchtdruk 1000 (hPa) - 29.53 (inHg)
Zicht 6 (mijl) - 9.7 (km)
Vliegveld
Vliegveld code EHRD

Locatie : Rotterdam The Hague Airport
Afstand: 14 (km)

Metar:
EHRD 250825Z AUTO 19007KT 160V230 9999 FEW011/// BKN014/// BKN018/// 06/05 Q1000 TEMPO BKN012

Tijd: 25-02-2024 09:25 CET